Time;durP1;ratioP1;P1;durP2;ratioP2;P2;SDS_P1;SDS_P2;PMS_P1;PMS_P2;Temp;Humidity;BMP_temperature;BMP_pressure;BME280_temperature;BME280_humidity;BME280_pressure;Samples;Min_cycle;Max_cycle;Signal;HPM_P1;HPM_P2
2023/06/01 00:00:35;;;;;;;15.55;10.73;;;21.10;87.60;;;;;;5032867;28;20040;-73
2023/06/01 00:03:00;;;;;;;13.70;10.82;;;21.10;87.50;;;;;;5033323;28;20025;-72
2023/06/01 00:05:26;;;;;;;16.13;11.00;;;21.00;87.50;;;;;;5036457;28;20032;-72
2023/06/01 00:07:51;;;;;;;14.27;10.70;;;21.00;87.60;;;;;;5036372;28;20028;-72
2023/06/01 00:10:17;;;;;;;14.98;10.07;;;21.00;87.60;;;;;;5036154;28;20057;-72
2023/06/01 00:12:43;;;;;;;14.63;10.93;;;21.00;87.50;;;;;;5036432;28;20025;-73
2023/06/01 00:15:08;;;;;;;13.63;10.35;;;21.00;87.60;;;;;;5034932;28;20056;-72
2023/06/01 00:17:34;;;;;;;14.48;10.70;;;20.90;87.90;;;;;;5036131;28;20463;-72
2023/06/01 00:20:09;;;;;;;13.95;10.40;;;20.90;87.70;;;;;;5036112;28;20025;-73
2023/06/01 00:22:38;;;;;;;15.05;10.85;;;20.80;87.70;;;;;;5036163;28;20101;-72
2023/06/01 00:25:06;;;;;;;12.82;10.80;;;20.80;87.70;;;;;;5035854;28;20052;-73
2023/06/01 00:27:31;;;;;;;14.00;11.65;;;20.80;87.70;;;;;;5036094;28;20023;-72
2023/06/01 00:29:57;;;;;;;15.38;10.82;;;20.80;87.80;;;;;;5035957;28;20033;-72
2023/06/01 00:32:22;;;;;;;12.45;10.07;;;20.70;87.70;;;;;;5036172;28;20090;-73
2023/06/01 00:34:48;;;;;;;13.25;11.23;;;20.70;87.80;;;;;;5035755;28;20057;-72
2023/06/01 00:37:13;;;;;;;18.17;10.88;;;20.70;87.80;;;;;;5035936;28;20493;-72
2023/06/01 00:39:39;;;;;;;14.30;10.65;;;20.70;88.10;;;;;;5035453;28;20094;-72
2023/06/01 00:42:05;;;;;;;14.40;11.02;;;20.60;87.90;;;;;;5035842;28;20033;-72
2023/06/01 00:44:30;;;;;;;17.02;11.00;;;20.60;88.00;;;;;;5035692;28;20473;-72
2023/06/01 00:46:59;;;;;;;14.00;9.82;;;20.60;88.00;;;;;;5035732;28;20064;-72
2023/06/01 00:49:24;;;;;;;15.32;9.95;;;20.60;88.00;;;;;;5035495;28;20024;-73
2023/06/01 00:51:50;;;;;;;11.98;10.73;;;20.60;88.00;;;;;;5035750;28;20026;-72
2023/06/01 00:54:16;;;;;;;13.35;10.23;;;20.50;88.00;;;;;;5035157;28;20677;-73
2023/06/01 00:56:42;;;;;;;17.70;10.73;;;20.50;88.00;;;;;;5034018;28;20026;-72
2023/06/01 00:59:08;;;;;;;15.90;10.35;;;20.50;88.00;;;;;;5035428;28;20037;-72
2023/06/01 01:01:36;;;;;;;13.57;10.00;;;20.50;87.90;;;;;;5035591;28;20096;-72
2023/06/01 01:04:01;;;;;;;13.45;10.07;;;20.40;88.00;;;;;;5035314;28;20036;-72
2023/06/01 01:06:51;;;;;;;14.45;10.52;;;20.40;88.60;;;;;;5035366;28;20025;-72
2023/06/01 01:09:32;;;;;;;12.18;10.73;;;20.40;88.00;;;;;;5035020;28;20025;-72
2023/06/01 01:12:03;;;;;;;14.30;10.70;;;20.30;88.00;;;;;;5035473;28;20018;-72
2023/06/01 01:14:52;;;;;;;13.70;9.98;;;20.30;88.10;;;;;;5035010;28;20022;-72
2023/06/01 01:17:45;;;;;;;13.98;10.93;;;20.30;88.10;;;;;;5033762;28;20457;-72
2023/06/01 01:20:16;;;;;;;11.77;10.57;;;20.20;88.00;;;;;;5035138;28;20104;-73
2023/06/01 01:23:00;;;;;;;14.50;10.20;;;20.20;88.00;;;;;;5035126;28;20022;-72
2023/06/01 01:26:00;;;;;;;17.05;10.73;;;20.20;88.00;;;;;;5034808;28;20037;-72
2023/06/01 01:28:48;;;;;;;11.63;10.38;;;20.20;88.00;;;;;;5034798;28;20044;-72
2023/06/01 01:31:18;;;;;;;15.50;11.10;;;20.10;88.10;;;;;;5034944;28;20040;-72
2023/06/01 01:33:48;;;;;;;13.23;9.95;;;20.10;88.20;;;;;;5034875;28;20459;-72
2023/06/01 01:36:15;;;;;;;13.63;10.73;;;20.10;88.10;;;;;;5034417;28;20043;-72
2023/06/01 01:38:40;;;;;;;12.48;10.52;;;20.10;88.20;;;;;;5034620;28;20034;-73
2023/06/01 01:41:06;;;;;;;14.23;10.18;;;20.00;88.10;;;;;;5034762;28;20112;-72
2023/06/01 01:43:32;;;;;;;13.90;10.27;;;20.00;88.10;;;;;;5034620;28;20467;-72
2023/06/01 01:46:26;;;;;;;12.50;10.68;;;20.00;88.10;;;;;;5034550;28;20022;-73
2023/06/01 01:49:17;;;;;;;18.38;11.43;;;20.00;88.10;;;;;;5034957;28;20048;-72
2023/06/01 01:51:58;;;;;;;14.30;11.32;;;19.90;88.10;;;;;;5034205;28;20032;-72
2023/06/01 01:54:25;;;;;;;13.77;10.88;;;19.90;88.10;;;;;;5034487;28;20172;-72
2023/06/01 01:56:54;;;;;;;16.70;11.63;;;19.90;88.10;;;;;;5034325;28;20364;-72
2023/06/01 01:59:20;;;;;;;15.85;11.27;;;19.90;88.10;;;;;;5034348;28;20108;-73
2023/06/01 02:01:46;;;;;;;13.93;11.65;;;19.80;88.10;;;;;;5034275;28;20080;-73
2023/06/01 02:04:12;;;;;;;12.10;10.90;;;19.80;88.20;;;;;;5034387;28;20033;-72
2023/06/01 02:06:37;;;;;;;18.80;12.15;;;19.80;88.10;;;;;;5033678;28;20028;-73
2023/06/01 02:09:07;;;;;;;14.00;11.15;;;19.80;88.10;;;;;;5034466;28;20025;-73
2023/06/01 02:11:33;;;;;;;14.13;11.00;;;19.80;88.20;;;;;;5034112;28;20021;-73
2023/06/01 02:13:59;;;;;;;15.02;11.23;;;19.70;88.20;;;;;;5034289;28;20025;-73
2023/06/01 02:16:25;;;;;;;15.82;11.68;;;19.70;88.20;;;;;;5033947;28;20071;-72
2023/06/01 02:18:51;;;;;;;15.55;11.40;;;19.70;88.20;;;;;;5034082;28;20467;-72
2023/06/01 02:21:17;;;;;;;14.32;11.93;;;19.70;88.20;;;;;;5033772;28;20378;-73
2023/06/01 02:23:42;;;;;;;16.52;11.77;;;19.60;88.00;;;;;;5034073;28;20037;-72
2023/06/01 02:26:09;;;;;;;16.33;11.32;;;19.60;88.10;;;;;;5033313;28;20033;-72
2023/06/01 02:28:40;;;;;;;14.50;11.70;;;19.60;88.10;;;;;;5033682;28;20502;-72
2023/06/01 02:31:06;;;;;;;14.23;11.93;;;19.50;88.20;;;;;;5033769;28;20072;-72
2023/06/01 02:33:32;;;;;;;15.35;12.60;;;19.50;88.20;;;;;;5033745;28;20029;-73
2023/06/01 02:35:59;;;;;;;13.32;11.80;;;19.50;88.20;;;;;;5033504;28;20100;-72
2023/06/01 02:38:24;;;;;;;14.73;12.45;;;19.40;88.20;;;;;;5033538;28;20036;-72
2023/06/01 02:40:50;;;;;;;15.43;11.68;;;19.40;88.40;;;;;;5033836;28;20022;-72
2023/06/01 02:43:16;;;;;;;14.73;12.77;;;19.40;88.30;;;;;;5033691;28;20103;-72
2023/06/01 02:45:41;;;;;;;15.23;12.63;;;19.30;88.40;;;;;;5033586;28;20028;-72
2023/06/01 02:48:07;;;;;;;17.90;12.32;;;19.40;88.30;;;;;;5032069;28;20483;-72
2023/06/01 02:50:32;;;;;;;13.80;12.10;;;19.30;88.10;;;;;;5033190;28;20459;-72
2023/06/01 02:52:58;;;;;;;15.65;12.10;;;19.30;88.00;;;;;;5033454;28;20080;-72
2023/06/01 02:55:24;;;;;;;14.88;11.50;;;19.20;87.80;;;;;;5032009;28;20022;-72
2023/06/01 02:57:49;;;;;;;14.32;12.45;;;19.30;87.80;;;;;;5032044;28;20171;-72
2023/06/01 03:00:15;;;;;;;15.32;12.73;;;19.30;87.80;;;;;;5033348;28;20033;-72
2023/06/01 03:02:45;;;;;;;15.98;12.38;;;19.30;87.70;;;;;;5033139;28;20079;-72
2023/06/01 03:05:14;;;;;;;14.27;11.93;;;19.20;87.60;;;;;;5033280;28;20021;-72
2023/06/01 03:07:44;;;;;;;15.50;12.60;;;19.20;87.60;;;;;;5031867;28;20120;-72
2023/06/01 03:10:10;;;;;;;14.63;12.18;;;19.20;87.40;;;;;;5033389;28;20081;-72
2023/06/01 03:12:36;;;;;;;16.60;12.65;;;19.20;87.40;;;;;;5033204;28;20509;-72
2023/06/01 03:15:02;;;;;;;14.75;12.70;;;19.10;87.40;;;;;;5033244;28;20025;-72
2023/06/01 03:17:28;;;;;;;17.17;12.57;;;19.10;87.50;;;;;;5032804;28;20034;-72
2023/06/01 03:19:54;;;;;;;14.30;12.38;;;19.10;87.50;;;;;;5032883;28;20083;-72
2023/06/01 03:22:19;;;;;;;16.52;12.40;;;19.10;87.50;;;;;;5033120;28;20031;-72
2023/06/01 03:24:49;;;;;;;18.15;12.60;;;19.00;87.40;;;;;;5032951;28;20383;-71
2023/06/01 03:27:19;;;;;;;16.77;12.93;;;19.10;87.60;;;;;;5032733;28;20387;-72
2023/06/01 03:29:45;;;;;;;16.27;13.23;;;19.00;87.50;;;;;;5032975;28;20034;-72
2023/06/01 03:32:11;;;;;;;14.88;13.05;;;19.00;87.50;;;;;;5032865;28;20613;-71
2023/06/01 03:34:36;;;;;;;14.98;13.10;;;18.90;87.50;;;;;;5033199;28;20477;-72
2023/06/01 03:37:07;;;;;;;15.05;13.43;;;19.00;87.60;;;;;;5033037;28;20517;-71
2023/06/01 03:39:34;;;;;;;14.65;12.93;;;18.90;87.60;;;;;;5036210;28;20065;-72
2023/06/01 03:42:00;;;;;;;16.80;12.55;;;18.90;87.50;;;;;;5037053;28;20022;-72
2023/06/01 03:44:25;;;;;;;17.83;14.05;;;18.90;87.60;;;;;;5036951;28;20040;-72
2023/06/01 03:46:51;;;;;;;16.15;13.93;;;18.80;87.60;;;;;;5036652;28;20049;-72
2023/06/01 03:49:16;;;;;;;16.25;13.82;;;18.80;87.80;;;;;;5036931;28;20053;-72
2023/06/01 03:51:42;;;;;;;17.90;14.50;;;18.80;87.70;;;;;;5036818;28;20021;-72
2023/06/01 03:54:08;;;;;;;16.88;14.23;;;18.70;87.70;;;;;;5036581;28;20118;-71
2023/06/01 03:56:35;;;;;;;18.38;14.60;;;18.80;87.70;;;;;;5036850;28;20017;-72
2023/06/01 03:59:01;;;;;;;15.45;13.85;;;18.70;87.70;;;;;;5036344;28;20032;-72
2023/06/01 04:01:29;;;;;;;18.15;14.70;;;18.70;87.70;;;;;;5036552;28;20033;-72
2023/06/01 04:03:55;;;;;;;18.67;14.27;;;18.70;87.60;;;;;;5036652;28;20104;-72
2023/06/01 04:06:22;;;;;;;16.13;14.25;;;18.70;87.70;;;;;;5036721;28;20076;-72
2023/06/01 04:08:49;;;;;;;17.73;15.15;;;18.70;87.80;;;;;;5035281;28;20042;-72
2023/06/01 04:11:15;;;;;;;18.45;15.70;;;18.70;87.80;;;;;;5036512;28;20036;-72
2023/06/01 04:13:41;;;;;;;17.88;15.98;;;18.50;88.00;;;;;;5036223;28;20022;-72
2023/06/01 04:16:07;;;;;;;23.88;16.20;;;17.50;90.40;;;;;;5036384;28;20045;-72
2023/06/01 04:18:33;;;;;;;20.52;16.17;;;16.80;91.60;;;;;;5036136;28;20372;-72
2023/06/01 04:20:59;;;;;;;21.60;16.50;;;16.50;92.40;;;;;;5036358;28;20022;-72
2023/06/01 04:23:25;;;;;;;22.58;16.60;;;16.10;93.20;;;;;;5036140;28;20029;-72
2023/06/01 04:25:51;;;;;;;29.85;16.83;;;15.70;93.90;;;;;;5036132;28;20029;-72
2023/06/01 04:28:17;;;;;;;20.42;17.58;;;15.60;94.50;;;;;;5036030;28;20402;-71
2023/06/01 04:30:47;;;;;;;25.95;18.25;;;15.40;94.90;;;;;;5035780;28;20032;-71
2023/06/01 04:33:13;;;;;;;22.80;18.10;;;15.20;95.20;;;;;;5036112;28;20224;-71
2023/06/01 04:35:39;;;;;;;22.75;17.95;;;15.10;95.70;;;;;;5035768;28;20466;-72
2023/06/01 04:38:05;;;;;;;22.92;17.25;;;15.10;95.70;;;;;;5035923;28;20087;-72
2023/06/01 04:40:31;;;;;;;19.40;17.35;;;15.10;95.90;;;;;;5035832;28;20025;-75
2023/06/01 04:42:56;;;;;;;23.15;17.13;;;14.80;96.20;;;;;;5038594;28;20486;-72
2023/06/01 04:45:25;;;;;;;21.83;17.67;;;14.50;96.90;;;;;;5041483;28;20032;-72
2023/06/01 04:47:51;;;;;;;20.55;16.77;;;14.20;97.80;;;;;;5042359;28;20013;-73
2023/06/01 04:50:17;;;;;;;25.05;17.48;;;14.20;98.20;;;;;;5046230;28;20068;-72
2023/06/01 04:52:43;;;;;;;27.58;18.30;;;14.40;97.60;;;;;;5055367;28;20174;-76
2023/06/01 04:55:09;;;;;;;21.40;17.02;;;14.20;98.00;;;;;;5054933;28;20021;-72
2023/06/01 04:57:36;;;;;;;23.23;17.98;;;14.50;97.70;;;;;;5055359;28;20017;-72
2023/06/01 05:00:06;;;;;;;19.90;17.75;;;14.50;97.70;;;;;;5055054;28;20029;-74
2023/06/01 05:02:31;;;;;;;21.08;17.85;;;14.60;97.50;;;;;;5055471;28;20021;-74
2023/06/01 05:04:57;;;;;;;24.52;17.73;;;14.80;97.20;;;;;;5055174;28;20429;-72
2023/06/01 05:07:24;;;;;;;22.13;18.45;;;14.70;97.40;;;;;;5055469;28;20025;-73
2023/06/01 05:09:50;;;;;;;21.02;17.15;;;14.50;97.70;;;;;;5053844;28;20017;-71
2023/06/01 05:12:15;;;;;;;23.33;18.80;;;14.70;97.60;;;;;;5055347;28;20029;-72
2023/06/01 05:14:41;;;;;;;28.88;21.48;;;14.60;97.60;;;;;;5054732;28;20053;-72
2023/06/01 05:17:06;;;;;;;24.42;20.75;;;14.60;97.50;;;;;;5053902;28;20402;-73
2023/06/01 05:19:32;;;;;;;25.70;21.30;;;14.40;97.70;;;;;;5053548;28;20040;-72
2023/06/01 05:21:57;;;;;;;24.80;20.52;;;14.60;97.60;;;;;;5032613;28;20037;-83
2023/06/01 05:24:23;;;;;;;27.42;19.08;;;14.40;98.00;;;;;;5039630;28;20037;-72
2023/06/01 05:26:49;;;;;;;22.63;18.08;;;14.50;98.20;;;;;;5039593;28;20406;-73
2023/06/01 05:29:15;;;;;;;23.98;17.63;;;14.40;98.30;;;;;;5054277;28;20052;-79
2023/06/01 05:31:41;;;;;;;23.35;17.33;;;14.50;98.10;;;;;;5042902;28;20378;-72
2023/06/01 05:34:07;;;;;;;23.63;17.55;;;14.10;98.60;;;;;;5041890;28;20076;-73
2023/06/01 05:36:32;;;;;;;36.45;27.50;;;14.20;98.90;;;;;;5034856;28;20048;-71
2023/06/01 05:38:59;;;;;;;35.83;28.13;;;14.20;98.40;;;;;;5033610;28;20037;-73
2023/06/01 05:41:25;;;;;;;32.10;24.52;;;14.30;98.30;;;;;;5033239;28;20018;-68
2023/06/01 05:43:51;;;;;;;24.17;20.52;;;14.60;98.10;;;;;;5060000;28;20016;-69
2023/06/01 05:46:18;;;;;;;21.77;17.95;;;14.90;97.10;;;;;;5074331;28;20023;-68
2023/06/01 05:48:43;;;;;;;19.42;17.13;;;15.60;96.40;;;;;;5042255;28;20431;-71
2023/06/01 05:51:11;;;;;;;19.15;15.27;;;16.00;95.50;;;;;;5044715;28;20052;-70
2023/06/01 05:53:37;;;;;;;32.85;24.05;;;16.20;94.80;;;;;;5032419;28;20112;-69
2023/06/01 05:56:03;;;;;;;30.60;22.40;;;16.40;94.30;;;;;;5048827;28;20105;-71
2023/06/01 05:58:28;;;;;;;27.58;22.58;;;16.60;93.80;;;;;;5049025;28;20068;-69
2023/06/01 06:00:54;;;;;;;36.20;28.95;;;16.60;93.60;;;;;;5033528;28;20100;-70
2023/06/01 06:03:21;;;;;;;31.85;27.17;;;16.70;93.40;;;;;;5038756;28;20378;-69
2023/06/01 06:05:46;;;;;;;41.08;32.58;;;16.80;93.30;;;;;;5044397;28;20086;-70
2023/06/01 06:08:12;;;;;;;37.75;30.60;;;16.80;93.30;;;;;;5044583;28;20032;-73
2023/06/01 06:10:38;;;;;;;33.00;25.45;;;16.80;93.20;;;;;;5034767;28;20032;-72
2023/06/01 06:13:03;;;;;;;28.27;23.55;;;17.00;93.10;;;;;;5040920;28;20064;-67
2023/06/01 06:15:29;;;;;;;25.48;21.10;;;17.10;92.70;;;;;;5053272;28;20032;-67
2023/06/01 06:17:55;;;;;;;24.80;20.77;;;17.20;92.40;;;;;;5033520;28;20037;-66
2023/06/01 06:20:21;;;;;;;31.70;24.13;;;17.20;92.30;;;;;;5043316;28;20166;-65
2023/06/01 06:22:51;;;;;;;39.10;32.72;;;17.30;92.30;;;;;;5043645;28;20022;-68
2023/06/01 06:25:16;;;;;;;42.97;36.97;;;17.20;92.00;;;;;;5031907;28;20418;-74
2023/06/01 06:27:42;;;;;;;39.00;32.35;;;17.20;92.00;;;;;;5037263;28;20486;-68
2023/06/01 06:30:08;;;;;;;33.13;25.77;;;17.30;91.80;;;;;;5041129;28;20033;-68
2023/06/01 06:32:34;;;;;;;29.23;23.15;;;17.20;91.80;;;;;;5034362;28;20045;-70
2023/06/01 06:35:00;;;;;;;22.98;19.15;;;17.30;92.00;;;;;;5042246;28;20020;-71
2023/06/01 06:37:27;;;;;;;21.73;18.58;;;17.40;91.90;;;;;;5034942;28;20390;-69
2023/06/01 06:39:53;;;;;;;23.70;17.88;;;17.40;91.80;;;;;;5033860;28;20459;-70
2023/06/01 06:42:18;;;;;;;22.60;18.20;;;17.50;91.60;;;;;;5033194;28;20026;-71
2023/06/01 06:44:44;;;;;;;25.00;22.05;;;17.50;91.20;;;;;;5035640;28;20521;-70
2023/06/01 06:47:09;;;;;;;24.98;21.40;;;17.50;91.10;;;;;;5046432;28;20057;-71
2023/06/01 06:49:35;;;;;;;26.25;21.60;;;17.50;91.10;;;;;;5048102;28;20056;-71
2023/06/01 06:52:00;;;;;;;24.30;21.13;;;17.70;91.20;;;;;;5043491;28;20021;-71
2023/06/01 06:54:26;;;;;;;21.17;18.92;;;17.70;91.10;;;;;;5043357;28;20100;-71
2023/06/01 06:56:51;;;;;;;23.30;19.13;;;17.80;91.00;;;;;;5049339;28;20463;-70
2023/06/01 06:59:17;;;;;;;21.88;19.17;;;18.00;91.10;;;;;;5053173;28;20052;-70
2023/06/01 07:01:43;;;;;;;22.58;17.83;;;18.10;91.30;;;;;;5052870;28;20364;-71
2023/06/01 07:04:08;;;;;;;21.58;17.42;;;18.20;90.80;;;;;;5053129;28;20421;-71
2023/06/01 07:06:34;;;;;;;24.90;17.95;;;18.30;90.80;;;;;;5038142;28;20054;-70
2023/06/01 07:09:00;;;;;;;20.10;16.48;;;18.40;90.70;;;;;;5052735;28;20466;-70
2023/06/01 07:11:29;;;;;;;18.73;15.88;;;18.50;90.60;;;;;;5042085;28;20475;-72
2023/06/01 07:13:57;;;;;;;18.40;15.60;;;18.50;90.80;;;;;;5037487;28;20028;-71
2023/06/01 07:16:24;;;;;;;27.00;15.95;;;18.60;90.40;;;;;;5053095;28;20021;-70
2023/06/01 07:18:50;;;;;;;19.17;14.75;;;18.70;90.30;;;;;;5040612;28;20029;-69
2023/06/01 07:21:16;;;;;;;15.55;13.38;;;18.80;90.20;;;;;;5033846;28;20360;-69
2023/06/01 07:23:43;;;;;;;15.65;13.13;;;18.90;90.10;;;;;;5031755;28;20463;-69
2023/06/01 07:26:08;;;;;;;16.77;13.95;;;19.00;90.00;;;;;;5039737;28;20017;-70
2023/06/01 07:28:34;;;;;;;14.15;12.68;;;19.00;89.30;;;;;;5043700;28;20386;-69
2023/06/01 07:31:00;;;;;;;19.67;12.57;;;19.10;89.30;;;;;;5041519;28;20034;-70
2023/06/01 07:33:25;;;;;;;15.70;12.18;;;19.20;89.20;;;;;;5056753;28;20071;-69
2023/06/01 07:35:52;;;;;;;15.80;12.82;;;19.20;88.60;;;;;;5051778;28;20067;-72
2023/06/01 07:38:20;;;;;;;15.65;12.32;;;19.30;88.60;;;;;;5045338;28;20475;-71
2023/06/01 07:40:46;;;;;;;17.15;11.20;;;19.30;87.50;;;;;;5040378;28;20049;-72
2023/06/01 07:43:11;;;;;;;14.52;10.23;;;19.40;88.00;;;;;;5045773;28;20017;-70
2023/06/01 07:45:38;;;;;;;12.13;9.48;;;19.40;87.70;;;;;;5032127;28;20030;-70
2023/06/01 07:48:05;;;;;;;13.20;9.05;;;19.50;86.50;;;;;;5032774;28;20402;-71
2023/06/01 07:50:31;;;;;;;16.02;9.82;;;19.50;86.10;;;;;;5033238;28;20064;-70
2023/06/01 07:52:57;;;;;;;16.63;10.93;;;19.50;86.60;;;;;;5032042;28;20475;-71
2023/06/01 07:55:23;;;;;;;14.57;10.52;;;19.60;85.40;;;;;;5035372;28;20026;-70
2023/06/01 07:57:49;;;;;;;15.05;10.30;;;19.60;85.60;;;;;;5033680;28;21404;-70
2023/06/01 08:00:17;;;;;;;12.80;10.50;;;19.70;86.40;;;;;;5052515;28;20163;-70
2023/06/01 08:02:43;;;;;;;17.05;10.25;;;19.70;85.70;;;;;;5052247;28;20021;-70
2023/06/01 08:05:10;;;;;;;16.77;9.68;;;19.80;85.70;;;;;;5052140;28;20028;-70
2023/06/01 08:07:37;;;;;;;12.82;9.88;;;19.80;84.70;;;;;;5052738;28;20095;-70
2023/06/01 08:10:08;;;;;;;22.00;10.52;;;19.90;85.70;;;;;;5052326;28;20101;-70
2023/06/01 08:12:35;;;;;;;11.40;9.27;;;19.90;84.40;;;;;;5052614;28;20481;-70
2023/06/01 08:15:01;;;;;;;11.95;9.02;;;19.90;84.80;;;;;;5052250;28;20021;-70
2023/06/01 08:17:27;;;;;;;12.10;9.80;;;20.00;85.10;;;;;;5052544;28;20429;-70
2023/06/01 08:19:53;;;;;;;12.70;9.18;;;20.00;84.60;;;;;;5052334;28;20033;-70
2023/06/01 08:22:20;;;;;;;12.98;8.82;;;20.00;84.60;;;;;;5052159;28;20493;-70
2023/06/01 08:24:47;;;;;;;10.95;9.30;;;20.10;84.10;;;;;;5052769;28;20390;-70
2023/06/01 08:27:21;;;;;;;12.40;8.80;;;20.10;83.50;;;;;;5055964;28;20104;-70
2023/06/01 08:29:47;;;;;;;14.13;9.73;;;20.20;84.10;;;;;;5055853;28;20056;-70
2023/06/01 08:32:13;;;;;;;13.43;10.02;;;20.20;83.70;;;;;;5056064;28;20024;-70
2023/06/01 08:34:39;;;;;;;15.57;8.65;;;20.20;83.20;;;;;;5055976;28;20028;-70
2023/06/01 08:37:05;;;;;;;14.65;9.20;;;20.20;83.70;;;;;;5055763;28;20029;-70
2023/06/01 08:39:31;;;;;;;11.80;9.40;;;20.20;83.30;;;;;;5055703;28;20029;-70
2023/06/01 08:42:08;;;;;;;12.77;8.10;;;20.30;82.70;;;;;;5055807;28;20043;-70
2023/06/01 08:44:38;;;;;;;16.95;8.48;;;20.30;82.80;;;;;;5055753;28;20478;-70
2023/06/01 08:47:04;;;;;;;16.50;9.40;;;20.30;82.70;;;;;;5055711;28;20074;-70
2023/06/01 08:49:31;;;;;;;11.10;9.23;;;20.30;81.60;;;;;;5055566;28;20031;-70
2023/06/01 08:52:01;;;;;;;16.05;10.82;;;20.40;82.10;;;;;;5055441;28;20086;-70
2023/06/01 08:54:30;;;;;;;11.50;10.32;;;20.40;81.30;;;;;;5055491;28;20090;-70
2023/06/01 08:57:00;;;;;;;12.65;9.32;;;20.40;81.50;;;;;;5055408;28;20422;-70
2023/06/01 08:59:25;;;;;;;11.73;8.88;;;20.40;81.60;;;;;;5055205;28;20037;-70
2023/06/01 09:01:53;;;;;;;13.02;8.48;;;20.50;81.90;;;;;;5055501;28;20025;-70
2023/06/01 09:04:18;;;;;;;17.13;11.18;;;20.50;82.60;;;;;;5055360;28;20041;-70
2023/06/01 09:06:44;;;;;;;14.02;10.20;;;20.50;81.40;;;;;;5055189;28;20060;-70
2023/06/01 09:09:12;;;;;;;13.52;8.57;;;20.50;80.70;;;;;;5055285;28;20021;-70
2023/06/01 09:11:38;;;;;;;13.40;10.18;;;20.50;81.50;;;;;;5055195;28;20036;-70
2023/06/01 09:14:21;;;;;;;12.82;10.07;;;20.50;80.70;;;;;;5053950;28;20029;-71
2023/06/01 09:16:47;;;;;;;15.10;9.25;;;20.60;80.90;;;;;;5055235;28;20033;-70
2023/06/01 09:19:13;;;;;;;11.95;9.70;;;20.60;81.70;;;;;;5053923;28;20037;-70
2023/06/01 09:21:39;;;;;;;16.20;11.63;;;20.60;81.50;;;;;;5054661;28;20017;-71
2023/06/01 09:24:22;;;;;;;14.95;11.48;;;20.70;81.10;;;;;;5054972;28;20051;-70
2023/06/01 09:26:49;;;;;;;12.98;8.40;;;20.60;81.30;;;;;;5054814;28;20017;-70
2023/06/01 09:29:14;;;;;;;14.27;10.15;;;20.60;81.90;;;;;;5050332;28;20041;-70
2023/06/01 09:31:42;;;;;;;12.85;11.13;;;20.60;81.90;;;;;;5039946;28;20032;-69
2023/06/01 09:34:11;;;;;;;12.60;9.27;;;20.60;81.60;;;;;;5042067;28;20026;-73
2023/06/01 09:36:37;;;;;;;14.50;11.27;;;20.60;82.30;;;;;;5045537;28;20028;-71
2023/06/01 09:39:07;;;;;;;14.25;11.35;;;20.60;81.40;;;;;;5037872;28;20042;-76
2023/06/01 09:41:56;;;;;;;11.73;9.35;;;20.60;81.50;;;;;;5037568;28;20030;-77
2023/06/01 09:44:33;;;;;;;15.43;11.65;;;20.60;81.80;;;;;;5037708;28;20021;-78
2023/06/01 09:47:04;;;;;;;13.88;9.73;;;20.60;81.30;;;;;;5052094;28;20029;-74
2023/06/01 09:49:38;;;;;;;15.15;10.55;;;20.60;81.90;;;;;;5048405;28;20025;-74
2023/06/01 09:52:04;;;;;;;13.43;9.52;;;20.60;81.00;;;;;;5034293;28;20033;-76
2023/06/01 09:54:34;;;;;;;16.10;9.43;;;20.70;81.40;;;;;;5034510;28;20026;-75
2023/06/01 09:57:02;;;;;;;13.30;10.77;;;20.70;81.00;;;;;;5036910;28;20053;-75
2023/06/01 09:59:29;;;;;;;13.00;8.98;;;20.70;80.40;;;;;;5038676;28;20102;-74
2023/06/01 10:01:58;;;;;;;15.23;10.10;;;20.70;81.20;;;;;;5035917;28;20056;-75
2023/06/01 10:04:28;;;;;;;14.13;10.57;;;20.70;80.40;;;;;;5038212;28;20440;-67
2023/06/01 10:06:55;;;;;;;13.57;9.55;;;20.70;80.60;;;;;;5043371;28;20356;-72
2023/06/01 10:09:24;;;;;;;17.05;11.68;;;20.70;81.00;;;;;;5051167;28;20457;-73
2023/06/01 10:11:53;;;;;;;17.70;10.65;;;20.70;80.60;;;;;;5050801;28;20067;-72
2023/06/01 10:14:19;;;;;;;14.20;9.65;;;20.80;81.60;;;;;;5036777;28;20414;-71
2023/06/01 10:16:45;;;;;;;16.00;10.52;;;20.80;81.70;;;;;;5038030;28;20028;-69
2023/06/01 10:19:38;;;;;;;13.73;9.70;;;20.80;81.20;;;;;;5044209;28;20045;-73
2023/06/01 10:22:04;;;;;;;13.07;10.40;;;20.80;80.90;;;;;;5035417;28;20386;-73
2023/06/01 10:24:32;;;;;;;14.25;7.93;;;20.80;81.30;;;;;;5034046;28;20028;-73
2023/06/01 10:26:57;;;;;;;16.55;11.18;;;20.80;82.20;;;;;;5043839;28;20098;-73
2023/06/01 10:29:24;;;;;;;13.30;9.10;;;20.90;81.00;;;;;;5052076;28;20486;-68
2023/06/01 10:31:50;;;;;;;17.30;11.73;;;20.90;81.70;;;;;;5042324;28;20029;-70
2023/06/01 10:34:42;;;;;;;14.10;9.32;;;20.90;81.20;;;;;;5050434;28;20029;-73
2023/06/01 10:37:08;;;;;;;16.08;11.50;;;20.90;81.90;;;;;;5035844;28;20033;-65
2023/06/01 10:39:34;;;;;;;14.20;10.60;;;20.80;80.70;;;;;;5053001;28;20033;-69
2023/06/01 10:42:18;;;;;;;15.55;10.52;;;20.90;80.50;;;;;;5040113;28;20029;-72
2023/06/01 10:44:47;;;;;;;21.77;9.73;;;20.90;81.60;;;;;;5044295;28;20087;-67
2023/06/01 10:47:12;;;;;;;15.55;10.82;;;20.90;82.40;;;;;;5041805;28;20021;-70
2023/06/01 10:49:47;;;;;;;16.13;11.70;;;20.90;80.70;;;;;;5039193;28;20501;-73
2023/06/01 10:52:28;;;;;;;16.50;9.15;;;20.90;80.10;;;;;;5039929;28;20087;-73
2023/06/01 10:54:56;;;;;;;13.47;10.87;;;20.90;81.70;;;;;;5047988;28;20037;-74
2023/06/01 10:57:25;;;;;;;13.15;9.90;;;20.90;81.40;;;;;;5049812;28;20115;-73
2023/06/01 11:00:14;;;;;;;17.13;11.60;;;21.00;80.40;;;;;;5043391;28;20073;-71
2023/06/01 11:03:00;;;;;;;17.30;11.05;;;20.90;81.70;;;;;;5042642;28;20032;-71
2023/06/01 11:05:47;;;;;;;16.10;11.27;;;20.90;81.20;;;;;;5046199;28;20504;-74
2023/06/01 11:08:20;;;;;;;15.80;8.80;;;20.90;81.20;;;;;;5037534;28;20446;-73
2023/06/01 11:10:55;;;;;;;;;;;21.00;82.40;;;;;;5044591;28;20211;-74
2023/06/01 11:13:31;;;;;;;14.27;8.45;;;21.00;82.20;;;;;;5049048;28;19915;-71
2023/06/01 11:16:22;;;;;;;12.27;9.50;;;20.90;82.60;;;;;;5043432;28;20029;-72
2023/06/01 11:18:57;;;;;;;15.60;11.73;;;21.00;82.00;;;;;;5046472;28;20044;-71
2023/06/01 11:21:24;;;;;;;14.25;10.18;;;21.00;81.60;;;;;;5045049;28;20048;-69
2023/06/01 11:23:51;;;;;;;14.85;11.40;;;21.10;82.20;;;;;;5032000;28;20030;-71
2023/06/01 11:26:18;;;;;;;17.20;10.55;;;21.10;82.30;;;;;;5034590;28;20568;-73
2023/06/01 11:28:48;;;;;;;13.38;11.40;;;21.10;81.50;;;;;;5050821;28;20033;-72
2023/06/01 11:31:16;;;;;;;13.38;11.13;;;21.20;81.00;;;;;;5051328;28;20371;-72
2023/06/01 11:33:53;;;;;;;16.83;11.35;;;21.20;82.30;;;;;;5052756;28;20021;-72
2023/06/01 11:36:26;;;;;;;15.48;11.50;;;21.10;83.00;;;;;;5051410;28;20022;-74
2023/06/01 11:38:53;;;;;;;16.80;11.45;;;21.10;82.90;;;;;;5038830;28;20037;-71
2023/06/01 11:41:20;;;;;;;18.80;10.65;;;21.20;83.00;;;;;;5036084;28;20033;-72
2023/06/01 11:43:57;;;;;;;14.05;9.65;;;21.20;83.20;;;;;;5035317;28;20060;-72
2023/06/01 11:46:23;;;;;;;14.43;9.98;;;21.20;82.90;;;;;;5041396;28;20021;-73
2023/06/01 11:49:04;;;;;;;13.20;8.38;;;21.20;83.00;;;;;;5049809;28;20028;-71
2023/06/01 11:51:38;;;;;;;13.15;8.85;;;21.20;83.10;;;;;;5039079;28;20117;-71
2023/06/01 11:54:05;;;;;;;15.23;10.18;;;21.20;82.90;;;;;;5032147;28;20017;-72
2023/06/01 11:56:32;;;;;;;14.73;8.77;;;21.30;82.30;;;;;;5034734;28;20051;-72
2023/06/01 11:59:01;;;;;;;16.25;10.27;;;21.30;82.70;;;;;;5032827;28;20426;-72
2023/06/01 12:01:29;;;;;;;12.90;9.20;;;21.30;82.40;;;;;;5036497;28;20037;-72
2023/06/01 12:03:58;;;;;;;12.98;7.68;;;21.30;82.80;;;;;;5036351;28;20025;-72
2023/06/01 12:06:27;;;;;;;19.58;9.35;;;21.30;82.80;;;;;;5037392;28;20075;-72
2023/06/01 12:08:54;;;;;;;11.18;7.55;;;21.30;82.50;;;;;;5053557;28;20098;-72
2023/06/01 12:11:26;;;;;;;13.77;9.25;;;21.30;82.70;;;;;;5056520;28;20474;-71
2023/06/01 12:13:53;;;;;;;13.60;8.45;;;21.30;82.40;;;;;;5056362;28;20033;-72
2023/06/01 12:16:18;;;;;;;9.35;6.93;;;21.40;82.50;;;;;;5047729;28;20013;-71
2023/06/01 12:18:44;;;;;;;13.88;8.20;;;21.40;82.70;;;;;;5040290;28;20048;-72
2023/06/01 12:21:14;;;;;;;10.80;7.03;;;21.40;82.40;;;;;;5053928;28;20025;-72
2023/06/01 12:23:41;;;;;;;15.70;8.90;;;21.40;82.80;;;;;;5056050;28;20025;-71
2023/06/01 12:26:08;;;;;;;15.25;7.55;;;21.40;81.50;;;;;;5054969;28;20029;-71
2023/06/01 12:28:54;;;;;;;14.00;9.02;;;21.40;82.10;;;;;;5043190;28;20125;-73
2023/06/01 12:31:20;;;;;;;14.77;8.93;;;21.40;81.20;;;;;;5036057;28;20100;-71
2023/06/01 12:33:48;;;;;;;13.40;8.43;;;21.40;81.50;;;;;;5051782;28;20025;-72
2023/06/01 12:36:32;;;;;;;11.63;7.88;;;21.40;82.10;;;;;;5049871;28;20083;-71